Time;durP1;ratioP1;P1;durP2;ratioP2;P2;SDS_P1;SDS_P2;PMS_P1;PMS_P2;Temp;Humidity;BMP_temperature;BMP_pressure;BME280_temperature;BME280_humidity;BME280_pressure;Samples;Min_cycle;Max_cycle;Signal;HPM_P1;HPM_P2
2021/06/27 00:01:22;;;;;;;42.13;25.45;;;;;;;;;;5044170;28;20045;-72
2021/06/27 00:03:49;;;;;;;46.55;26.83;;;;;;;;;;5045383;28;20116;-71
2021/06/27 00:06:15;;;;;;;40.88;24.38;;;;;;;;;;5047731;28;20106;-72
2021/06/27 00:08:42;;;;;;;40.03;25.60;;;;;;;;;;5046856;28;20045;-72
2021/06/27 00:11:10;;;;;;;43.90;26.58;;;;;;;;;;5048478;28;20091;-72
2021/06/27 00:13:38;;;;;;;45.90;27.00;;;;;;;;;;5047719;28;20064;-72
2021/06/27 00:16:04;;;;;;;43.20;26.27;;;;;;;;;;5050666;28;20040;-72
2021/06/27 00:18:31;;;;;;;44.60;26.70;;;;;;;;;;5055602;28;20088;-72
2021/06/27 00:20:59;;;;;;;41.92;25.60;;;;;;;;;;5051441;28;20049;-72
2021/06/27 00:23:26;;;;;;;40.97;24.45;;;;;;;;;;5039522;28;20404;-71
2021/06/27 00:25:53;;;;;;;49.42;27.73;;;;;;;;;;5053936;28;20040;-73
2021/06/27 00:28:20;;;;;;;42.67;27.05;;;;;;;;;;5056334;28;20071;-72
2021/06/27 00:30:47;;;;;;;42.55;25.58;;;;;;;;;;5045482;28;20041;-71
2021/06/27 00:33:14;;;;;;;41.65;25.48;;;;;;;;;;5049188;28;20049;-71
2021/06/27 00:35:40;;;;;;;42.03;25.90;;;;;;;;;;5051632;28;20051;-72
2021/06/27 00:38:07;;;;;;;45.05;26.08;;;;;;;;;;5053087;28;20506;-71
2021/06/27 00:40:34;;;;;;;43.17;25.63;;;;;;;;;;5053252;28;20048;-72
2021/06/27 00:43:02;;;;;;;46.40;26.85;;;;;;;;;;5053299;28;20139;-71
2021/06/27 00:45:29;;;;;;;46.78;25.80;;;;;;;;;;5047399;28;20041;-72
2021/06/27 00:47:58;;;;;;;46.83;27.58;;;;;;;;;;5056283;28;20044;-72
2021/06/27 00:50:26;;;;;;;42.33;26.42;;;;;;;;;;5053186;28;20050;-71
2021/06/27 00:52:52;;;;;;;46.28;26.55;;;;;;;;;;5050570;28;20049;-72
2021/06/27 00:55:20;;;;;;;45.13;26.83;;;;;;;;;;5053133;28;21091;-72
2021/06/27 00:57:47;;;;;;;44.30;26.70;;;;;;;;;;5047245;28;20041;-71
2021/06/27 01:00:15;;;;;;;44.88;26.05;;;;;;;;;;5047717;28;20106;-71
2021/06/27 01:02:42;;;;;;;47.90;27.33;;;;;;;;;;5040313;28;20072;-72
2021/06/27 01:05:09;;;;;;;51.63;28.52;;;;;;;;;;5037385;28;20092;-71
2021/06/27 01:07:36;;;;;;;47.42;27.95;;;;;;;;;;5036281;28;20128;-71
2021/06/27 01:10:02;;;;;;;45.67;28.25;;;;;;;;;;5043111;28;20442;-72
2021/06/27 01:12:28;;;;;;;47.35;26.75;;;;;;;;;;5049808;28;20047;-71
2021/06/27 01:14:55;;;;;;;42.78;26.80;;;;;;;;;;5055238;28;20048;-72
2021/06/27 01:17:22;;;;;;;48.80;27.58;;;;;;;;;;5048157;28;20048;-71
2021/06/27 01:19:48;;;;;;;43.13;25.38;;;;;;;;;;5046538;28;20150;-72
2021/06/27 01:22:14;;;;;;;47.95;28.40;;;;;;;;;;5046455;28;20063;-72
2021/06/27 01:24:40;;;;;;;47.13;29.45;;;;;;;;;;5052056;28;20041;-71
2021/06/27 01:27:07;;;;;;;46.25;28.05;;;;;;;;;;5052737;28;20047;-72
2021/06/27 01:29:33;;;;;;;49.75;27.08;;;;;;;;;;5057120;28;20059;-71
2021/06/27 01:32:01;;;;;;;49.20;29.52;;;;;;;;;;5051310;28;20060;-71
2021/06/27 01:34:27;;;;;;;45.63;27.27;;;;;;;;;;5041610;28;20041;-72
2021/06/27 01:36:53;;;;;;;42.85;27.08;;;;;;;;;;5052845;28;20041;-71
2021/06/27 01:39:19;;;;;;;52.03;29.33;;;;;;;;;;5050699;28;20044;-72
2021/06/27 01:41:47;;;;;;;44.78;26.77;;;;;;;;;;5055716;28;20542;-72
2021/06/27 01:44:14;;;;;;;46.92;27.25;;;;;;;;;;5065708;28;20064;-72
2021/06/27 01:46:40;;;;;;;48.28;27.00;;;;;;;;;;5059445;28;20128;-72
2021/06/27 01:49:06;;;;;;;50.10;28.27;;;;;;;;;;5065203;28;20033;-72
2021/06/27 01:51:32;;;;;;;48.63;27.63;;;;;;;;;;5065010;28;20123;-72
2021/06/27 01:53:59;;;;;;;49.22;27.60;;;;;;;;;;5064014;28;20071;-72
2021/06/27 01:56:26;;;;;;;48.00;29.55;;;;;;;;;;5063074;28;20071;-71
2021/06/27 01:58:52;;;;;;;42.83;25.65;;;;;;;;;;5064611;28;20348;-72
2021/06/27 02:01:22;;;;;;;41.60;25.98;;;;;;;;;;5060993;28;20131;-72
2021/06/27 02:03:49;;;;;;;45.45;26.35;;;;;;;;;;5059397;28;20544;-71
2021/06/27 02:06:17;;;;;;;48.22;25.83;;;;;;;;;;5059822;28;20036;-72
2021/06/27 02:08:43;;;;;;;45.70;27.00;;;;;;;;;;5047676;28;20071;-72
2021/06/27 02:11:10;;;;;;;45.47;27.27;;;;;;;;;;5043702;28;20105;-71
2021/06/27 02:13:37;;;;;;;48.03;28.40;;;;;;;;;;5056953;28;20128;-71
2021/06/27 02:16:04;;;;;;;42.63;26.00;;;;;;;;;;5060759;28;20190;-72
2021/06/27 02:18:31;;;;;;;46.15;26.38;;;;;;;;;;5066136;28;20059;-72
2021/06/27 02:21:01;;;;;;;43.28;26.25;;;;;;;;;;5062515;28;20048;-72
2021/06/27 02:23:28;;;;;;;45.25;27.80;;;;;;;;;;5063681;28;20043;-71
2021/06/27 02:25:55;;;;;;;46.00;28.00;;;;;;;;;;5063076;28;20051;-71
2021/06/27 02:28:23;;;;;;;43.67;27.67;;;;;;;;;;5058810;28;20090;-71
2021/06/27 02:30:50;;;;;;;49.28;27.27;;;;;;;;;;5060194;28;20126;-72
2021/06/27 02:33:17;;;;;;;50.33;28.13;;;;;;;;;;5062194;28;20052;-72
2021/06/27 02:35:43;;;;;;;48.88;28.17;;;;;;;;;;5057227;28;20049;-71
2021/06/27 02:38:10;;;;;;;53.75;30.77;;;;;;;;;;5061014;28;22078;-71
2021/06/27 02:40:37;;;;;;;49.40;28.40;;;;;;;;;;5062545;28;20036;-72
2021/06/27 02:43:04;;;;;;;48.67;28.35;;;;;;;;;;5062771;28;20420;-72
2021/06/27 02:45:30;;;;;;;47.58;29.00;;;;;;;;;;5066312;28;20037;-72
2021/06/27 02:47:57;;;;;;;46.35;26.58;;;;;;;;;;5066874;28;20044;-71
2021/06/27 02:50:23;;;;;;;57.65;30.92;;;;;;;;;;5064424;28;20106;-71
2021/06/27 02:52:49;;;;;;;48.75;29.65;;;;;;;;;;5050588;28;20079;-71
2021/06/27 02:55:16;;;;;;;57.20;31.15;;;;;;;;;;5065666;28;20412;-72
2021/06/27 02:57:43;;;;;;;49.17;29.23;;;;;;;;;;5064706;28;20334;-71
2021/06/27 03:00:12;;;;;;;52.25;30.02;;;;;;;;;;5065660;28;20120;-71
2021/06/27 03:02:38;;;;;;;47.75;29.75;;;;;;;;;;5060566;28;20048;-71
2021/06/27 03:05:06;;;;;;;50.35;29.83;;;;;;;;;;5054362;28;20040;-72
2021/06/27 03:07:32;;;;;;;56.22;32.00;;;;;;;;;;5042250;28;20044;-71
2021/06/27 03:09:59;;;;;;;49.70;30.17;;;;;;;;;;5066252;28;20044;-71
2021/06/27 03:12:26;;;;;;;58.78;33.25;;;;;;;;;;5064119;28;20040;-71
2021/06/27 03:14:52;;;;;;;49.72;30.77;;;;;;;;;;5066474;28;20049;-72
2021/06/27 03:17:18;;;;;;;46.78;30.15;;;;;;;;;;5067213;28;20036;-71
2021/06/27 03:19:45;;;;;;;51.88;30.55;;;;;;;;;;5068575;28;20387;-71
2021/06/27 03:22:12;;;;;;;48.42;30.02;;;;;;;;;;5065432;28;20547;-71
2021/06/27 03:24:38;;;;;;;60.40;32.85;;;;;;;;;;5065715;28;20060;-71
2021/06/27 03:27:05;;;;;;;49.00;32.13;;;;;;;;;;5065252;28;20165;-72
2021/06/27 03:29:31;;;;;;;49.25;30.63;;;;;;;;;;5065386;28;20174;-71
2021/06/27 03:31:58;;;;;;;45.50;28.25;;;;;;;;;;5062584;28;20084;-72
2021/06/27 03:34:24;;;;;;;50.63;31.00;;;;;;;;;;5063170;28;20049;-72
2021/06/27 03:36:51;;;;;;;47.30;29.40;;;;;;;;;;5066184;28;20032;-71
2021/06/27 03:39:20;;;;;;;45.47;28.02;;;;;;;;;;5066052;28;20060;-72
2021/06/27 03:41:51;;;;;;;51.50;30.20;;;;;;;;;;5066762;28;20127;-71
2021/06/27 03:44:18;;;;;;;51.35;32.08;;;;;;;;;;5066532;28;20496;-71
2021/06/27 03:46:44;;;;;;;52.33;31.17;;;;;;;;;;5065754;28;20063;-71
2021/06/27 03:49:11;;;;;;;46.75;28.92;;;;;;;;;;5060635;28;20077;-71
2021/06/27 03:51:38;;;;;;;46.15;28.90;;;;;;;;;;5058175;28;20047;-71
2021/06/27 03:54:04;;;;;;;48.80;30.70;;;;;;;;;;5059518;28;20044;-71
2021/06/27 03:56:30;;;;;;;48.80;30.33;;;;;;;;;;5062654;28;20056;-71
2021/06/27 03:58:58;;;;;;;55.00;31.98;;;;;;;;;;5062468;28;20037;-71
2021/06/27 04:01:24;;;;;;;48.00;28.98;;;;;;;;;;5063883;28;20041;-71
2021/06/27 04:03:51;;;;;;;51.40;30.70;;;;;;;;;;5059899;28;20476;-71
2021/06/27 04:06:17;;;;;;;50.58;29.73;;;;;;;;;;5059112;28;20098;-71
2021/06/27 04:08:44;;;;;;;48.75;29.42;;;;;;;;;;5059142;28;20320;-71
2021/06/27 04:11:10;;;;;;;46.10;29.55;;;;;;;;;;5059332;28;20421;-71
2021/06/27 04:13:37;;;;;;;51.15;29.77;;;;;;;;;;5061444;28;20037;-72
2021/06/27 04:16:04;;;;;;;53.10;31.58;;;;;;;;;;5063882;28;20052;-71
2021/06/27 04:18:31;;;;;;;52.88;30.48;;;;;;;;;;5063327;28;20056;-72
2021/06/27 04:20:58;;;;;;;50.33;30.70;;;;;;;;;;5058805;28;20076;-72
2021/06/27 04:23:26;;;;;;;50.33;29.23;;;;;;;;;;5064427;28;20588;-71
2021/06/27 04:25:53;;;;;;;47.30;28.42;;;;;;;;;;5064485;28;20522;-72
2021/06/27 04:28:19;;;;;;;48.42;28.90;;;;;;;;;;5065447;28;20102;-71
2021/06/27 04:30:46;;;;;;;47.78;27.60;;;;;;;;;;5065789;28;20055;-71
2021/06/27 04:33:12;;;;;;;47.50;28.45;;;;;;;;;;5063735;28;20067;-71
2021/06/27 04:35:40;;;;;;;52.33;28.52;;;;;;;;;;5041053;28;20063;-71
2021/06/27 04:38:08;;;;;;;47.00;28.17;;;;;;;;;;5062748;28;20047;-71
2021/06/27 04:40:35;;;;;;;47.03;28.88;;;;;;;;;;5063209;28;20045;-72
2021/06/27 04:43:02;;;;;;;50.88;29.35;;;;;;;;;;5059747;28;20499;-71
2021/06/27 04:45:28;;;;;;;39.78;26.42;;;;;;;;;;5061682;28;20041;-71
2021/06/27 04:47:54;;;;;;;46.28;27.23;;;;;;;;;;5060107;28;20075;-72
2021/06/27 04:50:21;;;;;;;40.55;26.52;;;;;;;;;;5062406;28;20154;-71
2021/06/27 04:52:51;;;;;;;38.75;25.75;;;;;;;;;;5063450;28;20497;-71
2021/06/27 04:55:18;;;;;;;37.42;24.15;;;;;;;;;;5066383;28;20045;-72
2021/06/27 04:57:45;;;;;;;36.83;22.90;;;;;;;;;;5066511;28;20036;-71
2021/06/27 05:00:12;;;;;;;36.00;22.63;;;;;;;;;;5047302;28;22128;-71
2021/06/27 05:02:38;;;;;;;36.10;23.23;;;;;;;;;;5063778;28;20107;-71
2021/06/27 05:05:05;;;;;;;34.88;23.13;;;;;;;;;;5060680;28;20072;-71
2021/06/27 05:07:32;;;;;;;34.67;22.60;;;;;;;;;;5059532;28;20099;-72
2021/06/27 05:09:58;;;;;;;32.58;22.40;;;;;;;;;;5034986;28;20119;-72
2021/06/27 05:12:25;;;;;;;35.85;23.13;;;;;;;;;;5060632;28;20053;-71
2021/06/27 05:14:51;;;;;;;34.10;22.50;;;;;;;;;;5060360;28;20055;-72
2021/06/27 05:17:18;;;;;;;32.05;21.23;;;;;;;;;;5057650;28;20046;-71
2021/06/27 05:19:44;;;;;;;32.45;20.80;;;;;;;;;;5061662;28;20046;-72
2021/06/27 05:22:10;;;;;;;28.13;19.08;;;;;;;;;;5058531;28;20048;-71
2021/06/27 05:24:37;;;;;;;33.80;20.95;;;;;;;;;;5059145;28;20420;-71
2021/06/27 05:27:03;;;;;;;28.15;18.23;;;;;;;;;;5060959;28;20051;-72
2021/06/27 05:29:29;;;;;;;23.52;17.30;;;;;;;;;;5064748;28;20056;-72
2021/06/27 05:31:55;;;;;;;24.83;17.65;;;;;;;;;;5049016;28;20049;-72
2021/06/27 05:34:22;;;;;;;24.38;17.65;;;;;;;;;;5062507;28;20048;-71
2021/06/27 05:36:48;;;;;;;25.95;18.20;;;;;;;;;;5061496;28;20055;-71
2021/06/27 05:39:14;;;;;;;20.88;16.67;;;;;;;;;;5061457;28;20071;-73
2021/06/27 05:41:43;;;;;;;29.85;17.90;;;;;;;;;;5063206;28;20056;-71
2021/06/27 05:44:09;;;;;;;23.52;16.77;;;;;;;;;;5068420;28;20045;-72
2021/06/27 05:46:36;;;;;;;25.17;16.77;;;;;;;;;;5060675;28;20142;-71
2021/06/27 05:49:05;;;;;;;24.33;16.38;;;;;;;;;;5058264;28;20055;-71
2021/06/27 05:51:31;;;;;;;20.20;15.10;;;;;;;;;;5050328;28;20049;-71
2021/06/27 05:53:57;;;;;;;22.73;16.92;;;;;;;;;;5053788;28;20082;-71
2021/06/27 05:56:23;;;;;;;20.15;15.80;;;;;;;;;;5059820;28;20052;-71
2021/06/27 05:58:49;;;;;;;22.70;15.55;;;;;;;;;;5063782;28;20059;-72
2021/06/27 06:01:18;;;;;;;17.50;14.07;;;;;;;;;;5059822;28;20047;-72
2021/06/27 06:03:45;;;;;;;20.20;15.40;;;;;;;;;;5063762;28;20094;-72
2021/06/27 06:06:12;;;;;;;22.42;15.05;;;;;;;;;;5055607;28;20048;-72
2021/06/27 06:08:40;;;;;;;17.25;14.23;;;;;;;;;;5057792;28;20056;-71
2021/06/27 06:11:08;;;;;;;22.75;15.43;;;;;;;;;;5063520;28;20040;-72
2021/06/27 06:13:35;;;;;;;20.05;14.10;;;;;;;;;;5061978;28;20495;-71
2021/06/27 06:16:03;;;;;;;19.75;15.40;;;;;;;;;;5060779;28;20786;-72
2021/06/27 06:18:29;;;;;;;22.55;16.45;;;;;;;;;;5045227;28;20032;-72
2021/06/27 06:20:55;;;;;;;22.33;16.13;;;;;;;;;;5063857;28;20127;-72
2021/06/27 06:23:22;;;;;;;21.27;14.48;;;;;;;;;;5063515;28;20089;-71
2021/06/27 06:25:48;;;;;;;21.85;15.23;;;;;;;;;;5063272;28;20036;-72
2021/06/27 06:28:15;;;;;;;21.35;15.52;;;;;;;;;;5046763;28;20063;-72
2021/06/27 06:30:41;;;;;;;20.85;14.80;;;;;;;;;;5063090;28;20052;-72
2021/06/27 06:33:13;;;;;;;21.55;15.50;;;;;;;;;;5063826;28;20044;-72
2021/06/27 06:35:41;;;;;;;20.63;14.82;;;;;;;;;;5061834;28;20429;-71
2021/06/27 06:38:08;;;;;;;22.80;16.05;;;;;;;;;;5062679;28;20043;-71
2021/06/27 06:40:34;;;;;;;18.33;14.38;;;;;;;;;;5061854;28;20057;-71
2021/06/27 06:43:01;;;;;;;23.02;16.35;;;;;;;;;;5060557;28;20053;-72
2021/06/27 06:45:27;;;;;;;19.63;15.20;;;;;;;;;;5062191;28;20053;-71
2021/06/27 06:47:54;;;;;;;22.42;15.90;;;;;;;;;;5060535;28;20044;-72
2021/06/27 06:50:21;;;;;;;24.55;16.45;;;;;;;;;;5054397;28;20055;-72
2021/06/27 06:52:47;;;;;;;21.23;15.32;;;;;;;;;;5051551;28;20063;-71
2021/06/27 06:55:13;;;;;;;21.45;14.73;;;;;;;;;;5062800;28;20067;-71
2021/06/27 06:57:40;;;;;;;19.02;14.15;;;;;;;;;;5064000;28;20127;-72
2021/06/27 07:00:07;;;;;;;22.05;15.75;;;;;;;;;;5061499;28;20059;-72
2021/06/27 07:02:34;;;;;;;19.15;14.25;;;;;;;;;;5063439;28;20563;-72
2021/06/27 07:05:01;;;;;;;18.33;13.52;;;;;;;;;;5045549;28;20044;-72
2021/06/27 07:07:27;;;;;;;20.17;14.23;;;;;;;;;;5064855;28;20480;-72
2021/06/27 07:09:53;;;;;;;20.63;15.35;;;;;;;;;;5064701;28;20056;-72
2021/06/27 07:12:19;;;;;;;19.50;14.07;;;;;;;;;;5072464;28;20119;-72
2021/06/27 07:14:46;;;;;;;20.85;14.95;;;;;;;;;;5063707;28;20044;-72
2021/06/27 07:17:12;;;;;;;19.20;14.32;;;;;;;;;;5054015;28;20056;-73
2021/06/27 07:19:38;;;;;;;19.50;14.15;;;;;;;;;;5068916;28;20064;-72
2021/06/27 07:22:05;;;;;;;20.60;14.52;;;;;;;;;;5067936;28;20050;-72
2021/06/27 07:24:31;;;;;;;21.67;15.02;;;;;;;;;;5063978;28;20106;-72
2021/06/27 07:26:58;;;;;;;20.50;14.48;;;;;;;;;;5071818;28;20132;-73
2021/06/27 07:29:24;;;;;;;17.58;14.05;;;;;;;;;;5072659;28;20361;-72
2021/06/27 07:31:53;;;;;;;19.90;14.68;;;;;;;;;;5064065;28;20090;-72
2021/06/27 07:34:19;;;;;;;18.63;14.15;;;;;;;;;;5064217;28;20040;-72
2021/06/27 07:36:46;;;;;;;18.17;12.95;;;;;;;;;;5045675;28;20071;-72
2021/06/27 07:39:12;;;;;;;14.30;11.65;;;;;;;;;;5063924;28;20120;-72
2021/06/27 07:41:38;;;;;;;16.58;13.60;;;;;;;;;;5061889;28;20154;-72
2021/06/27 07:44:05;;;;;;;21.67;12.80;;;;;;;;;;5060589;28;20425;-72
2021/06/27 07:46:31;;;;;;;20.42;11.85;;;;;;;;;;5061812;28;20106;-73
2021/06/27 07:48:57;;;;;;;15.75;12.07;;;;;;;;;;5054901;28;20056;-73
2021/06/27 07:51:23;;;;;;;14.10;11.68;;;;;;;;;;5058188;28;20115;-73
2021/06/27 07:53:50;;;;;;;17.13;11.60;;;;;;;;;;5030644;28;20090;-73
2021/06/27 07:56:16;;;;;;;15.02;11.68;;;;;;;;;;5038557;28;20495;-73
2021/06/27 07:58:42;;;;;;;15.63;12.52;;;;;;;;;;5056146;28;20049;-72
2021/06/27 08:01:09;;;;;;;18.05;12.90;;;;;;;;;;5056252;28;20124;-73
2021/06/27 08:03:35;;;;;;;16.38;12.82;;;;;;;;;;5054095;28;20477;-72
2021/06/27 08:06:02;;;;;;;16.50;11.57;;;;;;;;;;5054799;28;20053;-73
2021/06/27 08:08:28;;;;;;;17.40;12.05;;;;;;;;;;5055980;28;20060;-73
2021/06/27 08:10:54;;;;;;;18.20;14.65;;;;;;;;;;5056004;28;20037;-73
2021/06/27 08:13:21;;;;;;;24.33;13.38;;;;;;;;;;5037549;28;20504;-73
2021/06/27 08:15:47;;;;;;;17.83;13.50;;;;;;;;;;5065474;28;20095;-73
2021/06/27 08:18:14;;;;;;;21.63;13.60;;;;;;;;;;5063978;28;20090;-73
2021/06/27 08:20:42;;;;;;;20.45;13.13;;;;;;;;;;5062474;28;20068;-73
2021/06/27 08:23:08;;;;;;;16.98;14.07;;;;;;;;;;5062455;28;20632;-72
2021/06/27 08:25:34;;;;;;;16.77;13.45;;;;;;;;;;5060756;28;20735;-72
2021/06/27 08:28:01;;;;;;;17.40;13.02;;;;;;;;;;5058242;28;20052;-73
2021/06/27 08:30:28;;;;;;;17.95;13.65;;;;;;;;;;5062430;28;20047;-73
2021/06/27 08:32:54;;;;;;;17.13;12.93;;;;;;;;;;5060013;28;20079;-72
2021/06/27 08:35:21;;;;;;;13.85;11.63;;;;;;;;;;5063066;28;20036;-82
2021/06/27 08:37:48;;;;;;;17.75;13.13;;;;;;;;;;5065066;28;20033;-75
2021/06/27 08:40:15;;;;;;;14.15;11.02;;;;;;;;;;5067616;28;20044;-77
2021/06/27 08:42:42;;;;;;;16.83;12.30;;;;;;;;;;5049977;28;20075;-84
2021/06/27 08:45:09;;;;;;;14.55;11.75;;;;;;;;;;5059330;28;20040;-74
2021/06/27 08:47:37;;;;;;;19.85;11.73;;;;;;;;;;5051460;28;20052;-74
2021/06/27 08:50:05;;;;;;;14.98;11.20;;;;;;;;;;5049057;28;20095;-74
2021/06/27 08:52:32;;;;;;;12.55;10.30;;;;;;;;;;5058872;28;20048;-73
2021/06/27 08:54:59;;;;;;;13.90;10.95;;;;;;;;;;5038492;28;20045;-74
2021/06/27 08:57:25;;;;;;;24.55;11.02;;;;;;;;;;5058763;28;20140;-73
2021/06/27 08:59:53;;;;;;;16.40;11.18;;;;;;;;;;5061890;28;20041;-73
2021/06/27 09:02:19;;;;;;;11.18;9.75;;;;;;;;;;5043034;28;20056;-73
2021/06/27 09:04:46;;;;;;;15.63;10.35;;;;;;;;;;5065831;28;20056;-73
2021/06/27 09:07:27;;;;;;;13.90;11.13;;;;;;;;;;5056049;28;20460;-73
2021/06/27 09:09:54;;;;;;;19.83;10.93;;;;;;;;;;5061997;28;20044;-73
2021/06/27 09:12:20;;;;;;;14.52;11.60;;;;;;;;;;5061566;28;20527;-73
2021/06/27 09:14:47;;;;;;;13.90;11.63;;;;;;;;;;5060001;28;20052;-73
2021/06/27 09:17:15;;;;;;;14.02;11.60;;;;;;;;;;5065033;28;20131;-73
2021/06/27 09:19:51;;;;;;;15.98;11.77;;;;;;;;;;5060766;28;20080;-74
2021/06/27 09:22:17;;;;;;;13.20;10.65;;;;;;;;;;5061776;28;20041;-73
2021/06/27 09:24:46;;;;;;;13.10;9.93;;;;;;;;;;5069552;28;20427;-74
2021/06/27 09:27:21;;;;;;;14.52;11.10;;;;;;;;;;5068182;28;20044;-74
2021/06/27 09:29:47;;;;;;;13.60;10.35;;;;;;;;;;5069215;28;20037;-73
2021/06/27 09:32:21;;;;;;;12.15;9.88;;;;;;;;;;5067599;28;20140;-74
2021/06/27 09:34:47;;;;;;;;;;;;;;;;;;5069840;28;20109;-74
2021/06/27 09:37:14;;;;;;;12.43;8.70;;;;;;;;;;5062611;28;20405;-74
2021/06/27 09:39:53;;;;;;;11.23;9.70;;;;;;;;;;5065301;28;20090;-74
2021/06/27 09:42:20;;;;;;;9.43;8.43;;;;;;;;;;5047466;28;20456;-73
2021/06/27 09:44:59;;;;;;;14.07;10.15;;;;;;;;;;5068276;28;20599;-74
2021/06/27 09:47:25;;;;;;;11.77;9.40;;;;;;;;;;5058583;28;20112;-74
2021/06/27 09:49:52;;;;;;;11.32;9.40;;;;;;;;;;5066312;28;20083;-74
2021/06/27 09:52:33;;;;;;;13.82;9.85;;;;;;;;;;5058927;28;20132;-74
2021/06/27 09:55:14;;;;;;;10.30;8.90;;;;;;;;;;5065375;28;20044;-73
2021/06/27 09:57:41;;;;;;;20.05;10.15;;;;;;;;;;5061902;28;20057;-73
2021/06/27 10:00:30;;;;;;;12.20;9.43;;;;;;;;;;5061009;28;20037;-73
2021/06/27 10:03:04;;;;;;;12.32;8.52;;;;;;;;;;5066094;28;20041;-74
2021/06/27 10:05:31;;;;;;;11.98;9.52;;;;;;;;;;5068198;28;20120;-74
2021/06/27 10:07:57;;;;;;;11.93;9.02;;;;;;;;;;5057203;28;20044;-74
2021/06/27 10:10:23;;;;;;;9.82;8.30;;;;;;;;;;5065072;28;20492;-74
2021/06/27 10:12:50;;;;;;;10.30;8.50;;;;;;;;;;5068857;28;20072;-74
2021/06/27 10:15:16;;;;;;;11.52;9.55;;;;;;;;;;5068120;28;20521;-74
2021/06/27 10:17:43;;;;;;;12.45;8.82;;;;;;;;;;5065085;28;20441;-74
2021/06/27 10:20:11;;;;;;;11.40;9.25;;;;;;;;;;5059277;28;20052;-75
2021/06/27 10:22:37;;;;;;;13.55;9.48;;;;;;;;;;5068681;28;20135;-75
2021/06/27 10:25:06;;;;;;;13.20;10.55;;;;;;;;;;5063201;28;20401;-75
2021/06/27 10:27:33;;;;;;;12.98;10.68;;;;;;;;;;5066025;28;20111;-75
2021/06/27 10:30:01;;;;;;;13.43;10.60;;;;;;;;;;5069271;28;20083;-73
2021/06/27 10:32:27;;;;;;;13.60;11.13;;;;;;;;;;5068439;28;20040;-73
2021/06/27 10:34:55;;;;;;;13.60;10.60;;;;;;;;;;5051162;28;20040;-73
2021/06/27 10:37:26;;;;;;;12.40;10.38;;;;;;;;;;5062481;28;20052;-73
2021/06/27 10:39:57;;;;;;;13.13;10.27;;;;;;;;;;5065285;28;20036;-73
2021/06/27 10:42:43;;;;;;;11.00;9.77;;;;;;;;;;5059908;28;20492;-74
2021/06/27 10:45:09;;;;;;;14.20;10.00;;;;;;;;;;5061536;28;20159;-73
2021/06/27 10:47:35;;;;;;;13.30;10.18;;;;;;;;;;5062141;28;20447;-72
2021/06/27 10:50:04;;;;;;;9.93;8.93;;;;;;;;;;5057095;28;20105;-73
2021/06/27 10:52:30;;;;;;;9.38;8.43;;;;;;;;;;5055407;28;20045;-75
2021/06/27 10:55:15;;;;;;;16.00;8.38;;;;;;;;;;5055571;28;20453;-75
2021/06/27 10:57:52;;;;;;;9.73;8.32;;;;;;;;;;5062199;28;20064;-75
2021/06/27 11:00:18;;;;;;;9.73;6.75;;;;;;;;;;5063865;28;20045;-75
2021/06/27 11:02:45;;;;;;;10.82;6.65;;;;;;;;;;5062328;28;20163;-76
2021/06/27 11:05:28;;;;;;;10.02;6.65;;;;;;;;;;5059510;28;20190;-75
2021/06/27 11:07:55;;;;;;;9.20;5.57;;;;;;;;;;5064818;28;20055;-74
2021/06/27 11:10:21;;;;;;;8.43;6.70;;;;;;;;;;5064656;28;20116;-75
2021/06/27 11:13:15;;;;;;;10.40;7.05;;;;;;;;;;5039784;28;20461;-75
2021/06/27 11:15:41;;;;;;;;;;;;;;;;;;5063152;28;20048;-75
2021/06/27 11:18:10;;;;;;;12.25;8.57;;;;;;;;;;5063935;28;19931;-75
2021/06/27 11:20:56;;;;;;;8.57;6.63;;;;;;;;;;5062992;28;20120;-75
2021/06/27 11:23:41;;;;;;;7.70;5.35;;;;;;;;;;5058155;28;20044;-75
2021/06/27 11:26:07;;;;;;;10.07;6.43;;;;;;;;;;5061248;28;20081;-75
2021/06/27 11:28:34;;;;;;;7.70;6.20;;;;;;;;;;5065655;28;20041;-74
2021/06/27 11:31:20;;;;;;;8.63;4.93;;;;;;;;;;5064439;28;20036;-74
2021/06/27 11:33:46;;;;;;;6.72;4.65;;;;;;;;;;5061936;28;20150;-74
2021/06/27 11:36:28;;;;;;;8.75;4.78;;;;;;;;;;5046945;28;20040;-74
2021/06/27 11:38:54;;;;;;;7.53;5.32;;;;;;;;;;5047811;28;20066;-74
2021/06/27 11:41:21;;;;;;;6.75;5.18;;;;;;;;;;5056937;28;20041;-74
2021/06/27 11:43:59;;;;;;;6.45;4.88;;;;;;;;;;5044404;28;20133;-74
2021/06/27 11:46:30;;;;;;;7.10;4.63;;;;;;;;;;5048284;28;20512;-74
2021/06/27 11:48:57;;;;;;;8.98;5.05;;;;;;;;;;5044408;28;20037;-75
2021/06/27 11:51:37;;;;;;;8.73;4.68;;;;;;;;;;5043173;28;20083;-75
2021/06/27 11:54:04;;;;;;;7.35;4.07;;;;;;;;;;5045920;28;20126;-75
2021/06/27 11:56:50;;;;;;;7.15;4.70;;;;;;;;;;5045232;28;20033;-74
2021/06/27 11:59:17;;;;;;;5.63;4.10;;;;;;;;;;5046867;28;20041;-75
2021/06/27 12:01:43;;;;;;;5.82;4.00;;;;;;;;;;5038262;28;20417;-74
2021/06/27 12:04:09;;;;;;;6.15;4.43;;;;;;;;;;5044435;28;20059;-75
2021/06/27 12:06:36;;;;;;;8.07;4.53;;;;;;;;;;5045327;28;20053;-75
2021/06/27 12:09:04;;;;;;;9.88;4.80;;;;;;;;;;5043881;28;20371;-74
2021/06/27 12:11:30;;;;;;;7.13;4.32;;;;;;;;;;5041553;28;20041;-75
2021/06/27 12:13:57;;;;;;;9.13;4.60;;;;;;;;;;5041318;28;20500;-75
2021/06/27 12:16:31;;;;;;;5.47;4.13;;;;;;;;;;5039605;28;20114;-75
2021/06/27 12:18:58;;;;;;;7.80;4.90;;;;;;;;;;5043716;28;20515;-74
2021/06/27 12:21:26;;;;;;;7.10;5.00;;;;;;;;;;5046577;28;20040;-75
2021/06/27 12:23:56;;;;;;;9.10;5.13;;;;;;;;;;5042081;28;20041;-74
2021/06/27 12:26:23;;;;;;;6.97;5.10;;;;;;;;;;5040534;28;20049;-75
2021/06/27 12:28:51;;;;;;;11.50;5.20;;;;;;;;;;5044466;28;20040;-75
2021/06/27 12:31:22;;;;;;;8.48;5.20;;;;;;;;;;5045118;28;20095;-75
2021/06/27 12:33:56;;;;;;;6.95;3.95;;;;;;;;;;5044843;28;20037;-74
2021/06/27 12:36:24;;;;;;;5.47;4.55;;;;;;;;;;5044702;28;20041;-75
2021/06/27 12:38:54;;;;;;;8.70;5.07;;;;;;;;;;5021337;28;20055;-75
2021/06/27 12:41:21;;;;;;;8.73;5.20;;;;;;;;;;5043566;28;20041;-75
2021/06/27 12:43:52;;;;;;;7.00;4.65;;;;;;;;;;5062367;28;20056;-75
2021/06/27 12:46:20;;;;;;;6.95;4.90;;;;;;;;;;5062629;28;20040;-75
2021/06/27 12:48:48;;;;;;;7.35;5.00;;;;;;;;;;5064613;28;20037;-75
2021/06/27 12:51:22;;;;;;;11.00;5.00;;;;;;;;;;5061234;28;20438;-75
2021/06/27 12:53:55;;;;;;;9.10;5.30;;;;;;;;;;5055632;28;20424;-75
2021/06/27 12:56:21;;;;;;;10.65;5.25;;;;;;;;;;5062895;28;20044;-75
2021/06/27 12:58:54;;;;;;;7.47;5.45;;;;;;;;;;5062376;28;20064;-75
2021/06/27 13:01:21;;;;;;;8.25;5.45;;;;;;;;;;5062196;28;20052;-75
2021/06/27 13:03:58;;;;;;;9.30;5.90;;;;;;;;;;5062731;28;20052;-75
2021/06/27 13:06:25;;;;;;;5.68;5.07;;;;;;;;;;5061387;28;20273;-74
2021/06/27 13:08:51;;;;;;;8.00;5.05;;;;;;;;;;5059560;28;20036;-75
2021/06/27 13:11:18;;;;;;;7.13;5.50;;;;;;;;;;5058147;28;20128;-75
2021/06/27 13:13:44;;;;;;;7.53;6.05;;;;;;;;;;5058926;28;20110;-73
2021/06/27 13:16:13;;;;;;;7.57;6.07;;;;;;;;;;5059369;28;20524;-73
2021/06/27 13:18:40;;;;;;;8.43;5.85;;;;;;;;;;5039899;28;20098;-73
2021/06/27 13:21:18;;;;;;;8.45;6.13;;;;;;;;;;5064087;28;20037;-73
2021/06/27 13:23:44;;;;;;;7.40;6.13;;;;;;;;;;5063673;28;20404;-73
2021/06/27 13:26:11;;;;;;;7.55;6.45;;;;;;;;;;5060250;28;20122;-73
2021/06/27 13:28:45;;;;;;;9.43;7.10;;;;;;;;;;5062616;28;20155;-73
2021/06/27 13:31:14;;;;;;;9.30;6.32;;;;;;;;;;5064589;28;20041;-73
2021/06/27 13:33:50;;;;;;;7.15;5.75;;;;;;;;;;5064604;28;20472;-73
2021/06/27 13:36:18;;;;;;;11.93;6.63;;;;;;;;;;5065203;28;20852;-73
2021/06/27 13:38:46;;;;;;;7.00;5.88;;;;;;;;;;5063641;28;20102;-73
2021/06/27 13:41:16;;;;;;;8.88;5.90;;;;;;;;;;5063765;28;20036;-73
2021/06/27 13:43:42;;;;;;;6.60;5.90;;;;;;;;;;5047050;28;20136;-74
2021/06/27 13:46:08;;;;;;;8.32;6.93;;;;;;;;;;5045859;28;20309;-74
2021/06/27 13:48:34;;;;;;;8.45;5.80;;;;;;;;;;5047493;28;20049;-74
2021/06/27 13:51:01;;;;;;;7.05;5.88;;;;;;;;;;5046635;28;20053;-74
2021/06/27 13:53:27;;;;;;;8.93;5.40;;;;;;;;;;5048291;28;20052;-74
2021/06/27 13:56:14;;;;;;;6.60;4.78;;;;;;;;;;5047357;28;20465;-74
2021/06/27 13:58:41;;;;;;;8.65;5.00;;;;;;;;;;5044842;28;20396;-74
2021/06/27 14:01:07;;;;;;;6.53;4.88;;;;;;;;;;5047553;28;20123;-74
2021/06/27 14:03:34;;;;;;;8.95;5.70;;;;;;;;;;5042102;28;20054;-74
2021/06/27 14:06:00;;;;;;;6.93;5.85;;;;;;;;;;5045417;28;20120;-74
2021/06/27 14:08:27;;;;;;;8.75;5.78;;;;;;;;;;5045757;28;20127;-74
2021/06/27 14:10:55;;;;;;;10.13;5.50;;;;;;;;;;5043391;28;20059;-74
2021/06/27 14:13:21;;;;;;;7.60;6.13;;;;;;;;;;5045856;28;20127;-74
2021/06/27 14:15:48;;;;;;;6.90;5.25;;;;;;;;;;5045167;28;20044;-74
2021/06/27 14:18:14;;;;;;;7.45;5.00;;;;;;;;;;5043086;28;20076;-74
2021/06/27 14:20:40;;;;;;;7.63;5.50;;;;;;;;;;5045960;28;20033;-74
2021/06/27 14:23:07;;;;;;;7.57;5.75;;;;;;;;;;5045449;28;20401;-74
2021/06/27 14:25:33;;;;;;;6.18;4.90;;;;;;;;;;5045687;28;20037;-74
2021/06/27 14:27:59;;;;;;;9.75;5.70;;;;;;;;;;5033833;28;20049;-74